createdAt,value
2019-05-10T00:00:44.081Z,9.13
2019-05-10T00:03:31.492Z,11.13
2019-05-10T00:06:18.724Z,9.50
2019-05-10T00:08:47.522Z,11.23
2019-05-10T00:11:41.507Z,8.16
2019-05-10T00:14:49.433Z,6.60
2019-05-10T00:17:21.314Z,7.20
2019-05-10T00:19:50.925Z,8.53
2019-05-10T00:22:21.601Z,7.60
2019-05-10T00:25:03.331Z,6.57
2019-05-10T00:27:24.324Z,9.93
2019-05-10T00:29:53.916Z,7.27
2019-05-10T00:32:23.450Z,7.30
2019-05-10T00:34:53.015Z,7.97
2019-05-10T00:37:24.656Z,7.10
2019-05-10T00:39:54.641Z,6.03
2019-05-10T00:42:24.470Z,7.27
2019-05-10T00:44:54.027Z,7.00
2019-05-10T00:47:23.589Z,6.67
2019-05-10T00:49:53.082Z,5.53
2019-05-10T00:52:22.556Z,9.37
2019-05-10T00:54:52.135Z,8.20
2019-05-10T00:57:22.323Z,6.47
2019-05-10T00:59:51.903Z,7.07
2019-05-10T01:02:22.713Z,6.90
2019-05-10T01:04:52.208Z,7.27
2019-05-10T01:07:24.463Z,7.40
2019-05-10T01:09:54.044Z,5.83
2019-05-10T01:12:23.581Z,9.07
2019-05-10T01:14:53.131Z,8.20
2019-05-10T01:17:24.409Z,6.40
2019-05-10T01:19:54.145Z,8.00
2019-05-10T01:22:23.740Z,7.93
2019-05-10T01:24:53.374Z,6.23
2019-05-10T01:27:22.953Z,7.77
2019-05-10T01:29:52.587Z,9.47
2019-05-10T01:32:22.135Z,6.00
2019-05-10T01:34:51.717Z,8.90
2019-05-10T01:37:23.510Z,5.73
2019-05-10T01:39:52.948Z,7.33
2019-05-10T01:42:22.495Z,7.03
2019-05-10T01:44:52.093Z,7.53
2019-05-10T01:47:22.468Z,8.47
2019-05-10T01:49:51.920Z,6.70
2019-05-10T01:52:21.402Z,7.33
2019-05-10T01:54:51.240Z,5.47
2019-05-10T01:57:22.412Z,6.50
2019-05-10T01:59:52.501Z,6.73
2019-05-10T02:02:22.109Z,7.77
2019-05-10T02:04:51.669Z,7.87
2019-05-10T02:07:23.966Z,9.87
2019-05-10T02:09:53.421Z,7.80
2019-05-10T02:12:22.958Z,10.60
2019-05-10T02:14:52.467Z,6.93
2019-05-10T02:17:22.234Z,8.00
2019-05-10T02:19:51.769Z,8.63
2019-05-10T02:22:21.242Z,5.77
2019-05-10T02:24:51.008Z,7.43
2019-05-10T02:27:21.369Z,6.53
2019-05-10T02:29:50.851Z,7.10
2019-05-10T02:32:20.498Z,8.47
2019-05-10T02:34:50.340Z,8.23
2019-05-10T02:37:22.292Z,7.77
2019-05-10T02:39:52.095Z,7.47
2019-05-10T02:42:22.923Z,7.47
2019-05-10T02:44:52.536Z,6.83
2019-05-10T02:47:22.840Z,6.70
2019-05-10T02:49:52.374Z,8.27
2019-05-10T02:52:21.934Z,8.30
2019-05-10T02:54:52.362Z,6.17
2019-05-10T02:57:23.400Z,6.33
2019-05-10T02:59:53.257Z,8.20
2019-05-10T03:02:23.342Z,10.03
2019-05-10T03:04:53.949Z,8.37
2019-05-10T03:07:26.721Z,10.43
2019-05-10T03:09:58.134Z,5.53
2019-05-10T03:12:27.740Z,8.97
2019-05-10T03:14:57.917Z,8.43
2019-05-10T03:17:28.695Z,7.23
2019-05-10T03:20:00.103Z,9.33
2019-05-10T03:22:31.321Z,8.60
2019-05-10T03:25:01.228Z,8.90
2019-05-10T03:27:32.273Z,11.90
2019-05-10T03:30:01.956Z,10.23
2019-05-10T03:32:31.756Z,11.50
2019-05-10T03:35:01.479Z,9.80
2019-05-10T03:37:31.117Z,8.60
2019-05-10T03:40:00.642Z,10.17
2019-05-10T03:42:30.186Z,11.53
2019-05-10T03:44:59.725Z,10.17
2019-05-10T03:47:29.487Z,9.63
2019-05-10T03:49:59.307Z,8.30
2019-05-10T03:52:28.763Z,12.30
2019-05-10T03:54:58.338Z,10.77
2019-05-10T03:57:31.099Z,10.47
2019-05-10T04:00:00.659Z,13.03
2019-05-10T04:02:30.133Z,12.53
2019-05-10T04:04:59.778Z,13.03
2019-05-10T04:07:29.660Z,9.67
2019-05-10T04:09:59.227Z,14.43
2019-05-10T04:12:28.867Z,14.70
2019-05-10T04:14:58.511Z,12.20
2019-05-10T04:17:29.694Z,11.53
2019-05-10T04:19:59.289Z,13.03
2019-05-10T04:22:28.974Z,12.10
2019-05-10T04:24:58.643Z,14.10
2019-05-10T04:27:32.727Z,12.07
2019-05-10T04:30:01.480Z,14.90
2019-05-10T04:32:31.180Z,14.07
2019-05-10T04:35:00.831Z,14.53
2019-05-10T04:37:30.323Z,15.17
2019-05-10T04:39:59.886Z,13.60
2019-05-10T04:42:29.728Z,16.33
2019-05-10T04:44:59.529Z,15.57
2019-05-10T04:47:32.139Z,15.03
2019-05-10T04:50:01.668Z,15.70
2019-05-10T04:52:31.250Z,15.33
2019-05-10T04:55:00.838Z,16.27
2019-05-10T04:57:49.798Z,15.47
2019-05-10T05:00:12.828Z,19.77
2019-05-10T05:02:51.151Z,16.67
2019-05-10T05:05:26.987Z,18.63
2019-05-10T05:07:57.299Z,17.43
2019-05-10T05:10:27.444Z,14.63
2019-05-10T05:12:56.939Z,16.80
2019-05-10T05:15:26.816Z,15.63
2019-05-10T05:17:57.226Z,15.03
2019-05-10T05:20:26.898Z,16.50
2019-05-10T05:22:56.499Z,18.63
2019-05-10T05:25:26.062Z,15.40
2019-05-10T05:28:07.560Z,15.33
2019-05-10T05:30:29.363Z,16.03
2019-05-10T05:32:59.230Z,19.40
2019-05-10T05:35:28.833Z,18.63
2019-05-10T05:37:59.631Z,17.77
2019-05-10T05:40:29.120Z,16.40
2019-05-10T05:43:02.524Z,16.70
2019-05-10T05:45:34.433Z,18.37
2019-05-10T05:48:01.428Z,16.67
2019-05-10T05:50:31.341Z,16.70
2019-05-10T05:53:00.990Z,16.47
2019-05-10T05:55:32.265Z,17.50
2019-05-10T05:58:04.880Z,19.00
2019-05-10T06:00:37.795Z,17.77
2019-05-10T06:03:05.901Z,16.73
2019-05-10T06:05:37.361Z,19.93
2019-05-10T06:08:21.431Z,17.20
2019-05-10T06:10:43.812Z,18.53
2019-05-10T06:13:12.255Z,17.97
2019-05-10T06:15:41.843Z,19.27
2019-05-10T06:18:12.163Z,19.07
2019-05-10T06:20:44.429Z,18.87
2019-05-10T06:23:13.771Z,20.07
2019-05-10T06:25:43.361Z,17.63
2019-05-10T06:28:26.257Z,22.47
2019-05-10T06:30:45.338Z,19.33
2019-05-10T06:33:15.058Z,21.07
2019-05-10T06:35:44.613Z,19.33
2019-05-10T06:38:14.159Z,20.13
2019-05-10T06:40:47.236Z,20.40
2019-05-10T06:43:15.662Z,22.50
2019-05-10T06:45:46.701Z,22.57
2019-05-10T06:48:25.797Z,21.73
2019-05-10T06:50:48.064Z,20.70
2019-05-10T06:53:17.653Z,19.07
2019-05-10T06:55:47.403Z,21.97
2019-05-10T06:58:16.921Z,22.10
2019-05-10T07:00:47.501Z,21.83
2019-05-10T07:03:17.275Z,22.23
2019-05-10T07:05:46.859Z,23.73
2019-05-10T07:08:20.390Z,23.33
2019-05-10T07:10:48.298Z,22.37
2019-05-10T07:13:18.831Z,24.10
2019-05-10T07:15:48.388Z,24.90
2019-05-10T07:18:22.545Z,22.67
2019-05-10T07:20:49.088Z,21.77
2019-05-10T07:23:18.588Z,24.50
2019-05-10T07:25:48.142Z,21.77
2019-05-10T07:28:17.835Z,19.10
2019-05-10T07:30:47.451Z,17.23
2019-05-10T07:33:17.062Z,21.47
2019-05-10T07:35:46.647Z,19.53
2019-05-10T07:38:16.460Z,18.07
2019-05-10T07:40:45.966Z,16.80
2019-05-10T07:43:24.640Z,18.90
2019-05-10T07:45:46.732Z,20.27
2019-05-10T07:48:16.321Z,18.97
2019-05-10T07:50:49.599Z,16.57
2019-05-10T07:53:23.085Z,19.90
2019-05-10T07:55:48.169Z,19.73
2019-05-10T07:58:17.770Z,22.87
2019-05-10T08:00:47.602Z,19.30
2019-05-10T08:03:23.341Z,20.17
2019-05-10T08:05:55.006Z,20.97
2019-05-10T08:08:20.002Z,20.50
2019-05-10T08:10:49.567Z,19.23
2019-05-10T08:13:23.341Z,18.77
2019-05-10T08:15:50.586Z,19.50
2019-05-10T08:18:24.012Z,19.20
2019-05-10T08:20:57.739Z,23.87
2019-05-10T08:23:26.535Z,21.37
2019-05-10T08:25:54.089Z,22.90
2019-05-10T08:28:27.888Z,23.93
2019-05-10T08:30:58.793Z,24.20
2019-05-10T08:33:26.452Z,22.53
2019-05-10T08:36:00.610Z,21.33
2019-05-10T08:38:27.914Z,20.80
2019-05-10T08:40:57.475Z,20.97
2019-05-10T08:43:30.730Z,20.97
2019-05-10T08:45:58.618Z,21.00
2019-05-10T08:48:28.151Z,20.47
2019-05-10T08:51:03.124Z,18.90
2019-05-10T08:53:28.957Z,17.43
2019-05-10T08:55:59.065Z,17.70
2019-05-10T09:01:26.774Z,19.43
2019-05-10T09:03:55.166Z,18.60
2019-05-10T09:06:19.209Z,18.05
2019-05-10T09:08:52.959Z,17.63
2019-05-10T09:11:19.997Z,17.75
2019-05-10T09:13:49.590Z,16.27
2019-05-10T09:16:19.257Z,16.00
2019-05-10T09:18:51.262Z,15.78
2019-05-10T09:21:22.308Z,15.80
2019-05-10T09:24:01.184Z,16.10
2019-05-10T09:26:23.876Z,17.10
2019-05-10T09:28:57.595Z,15.72
2019-05-10T09:31:25.707Z,19.27
2019-05-10T09:33:55.621Z,15.13
2019-05-10T09:36:30.956Z,16.77
2019-05-10T09:38:56.560Z,15.05
2019-05-10T09:41:27.752Z,14.28
2019-05-10T09:43:57.327Z,16.30
2019-05-10T09:46:26.868Z,14.70
2019-05-10T09:49:05.963Z,15.88
2019-05-10T09:51:30.257Z,15.88
2019-05-10T09:54:00.398Z,16.05
2019-05-10T09:56:32.951Z,15.53
2019-05-10T09:59:02.247Z,17.07
2019-05-10T10:01:31.791Z,20.60
2019-05-10T10:04:02.297Z,16.50
2019-05-10T10:06:32.029Z,16.00
2019-05-10T10:09:01.950Z,20.12
2019-05-10T10:11:32.084Z,17.70
2019-05-10T10:14:02.342Z,16.90
2019-05-10T10:16:32.001Z,16.07
2019-05-10T10:19:01.869Z,15.25
2019-05-10T10:21:35.345Z,14.83
2019-05-10T10:24:12.399Z,14.10
2019-05-10T10:26:33.895Z,15.00
2019-05-10T10:29:03.696Z,15.32
2019-05-10T10:31:33.795Z,14.87
2019-05-10T10:34:07.328Z,13.60
2019-05-10T10:36:40.225Z,14.33
2019-05-10T10:39:07.663Z,12.47
2019-05-10T10:41:37.284Z,11.73
2019-05-10T10:44:08.424Z,12.73
2019-05-10T10:46:38.018Z,14.38
2019-05-10T10:49:07.698Z,14.03
2019-05-10T10:51:37.938Z,14.25
2019-05-10T10:54:07.589Z,16.57
2019-05-10T10:56:37.562Z,16.93
2019-05-10T10:59:07.620Z,16.57
2019-05-10T11:01:48.899Z,16.50
2019-05-10T11:04:09.826Z,17.17
2019-05-10T11:06:39.510Z,15.32
2019-05-10T11:09:09.511Z,15.18
2019-05-10T11:11:43.934Z,13.60
2019-05-10T11:14:11.073Z,13.43
2019-05-10T11:16:41.261Z,12.50
2019-05-10T11:19:15.597Z,11.78
2019-05-10T11:21:43.189Z,12.40
2019-05-10T11:24:18.194Z,10.40
2019-05-10T11:26:46.479Z,9.65
2019-05-10T11:29:25.497Z,8.55
2019-05-10T11:31:53.406Z,6.78
2019-05-10T11:34:18.726Z,7.75
2019-05-10T11:36:48.423Z,8.00
2019-05-10T11:39:26.025Z,8.20
2019-05-10T11:41:54.916Z,8.85
2019-05-10T11:44:25.591Z,8.60
2019-05-10T11:46:53.648Z,8.90
2019-05-10T11:49:23.484Z,9.23
2019-05-10T11:51:56.032Z,9.70
2019-05-10T11:54:25.505Z,7.75
2019-05-10T11:56:58.561Z,8.98
2019-05-10T11:59:27.439Z,7.90
2019-05-10T12:02:00.502Z,8.20
2019-05-10T12:04:38.220Z,6.90
2019-05-10T12:07:02.754Z,6.37
2019-05-10T12:09:32.506Z,6.75
2019-05-10T12:12:03.399Z,6.80
2019-05-10T12:14:33.147Z,6.35
2019-05-10T12:17:06.359Z,8.08
2019-05-10T12:19:47.783Z,5.47
2019-05-10T12:22:06.279Z,4.62
2019-05-10T12:24:52.219Z,6.10
2019-05-10T12:27:21.852Z,6.83
2019-05-10T12:29:41.341Z,5.42
2019-05-10T12:32:11.259Z,5.65
2019-05-10T12:34:41.114Z,5.90
2019-05-10T12:37:10.673Z,6.58
2019-05-10T12:39:40.818Z,6.10
2019-05-10T12:42:11.304Z,6.60
2019-05-10T12:44:43.948Z,5.17
2019-05-10T12:47:13.049Z,5.15
2019-05-10T12:49:42.619Z,6.53
2019-05-10T12:52:14.038Z,5.47
2019-05-10T12:54:43.986Z,6.10
2019-05-10T12:57:13.826Z,3.87
2019-05-10T12:59:43.377Z,12.85
2019-05-10T13:02:13.352Z,3.98
2019-05-10T13:04:47.362Z,4.37
2019-05-10T13:07:15.785Z,3.92
2019-05-10T13:09:46.514Z,4.05
2019-05-10T13:12:16.526Z,4.78
2019-05-10T13:14:48.392Z,4.33
2019-05-10T13:17:17.459Z,4.05
2019-05-10T13:19:47.330Z,4.15
2019-05-10T13:22:16.900Z,4.80
2019-05-10T13:24:46.816Z,4.33
2019-05-10T13:27:16.427Z,4.37
2019-05-10T13:29:47.967Z,5.28
2019-05-10T13:32:20.458Z,5.00
2019-05-10T13:34:49.326Z,5.15
2019-05-10T13:37:24.745Z,5.12
2019-05-10T13:39:58.342Z,5.45
2019-05-10T13:42:24.486Z,4.58
2019-05-10T13:44:54.324Z,5.08
2019-05-10T13:47:23.955Z,5.70
2019-05-10T13:49:53.605Z,8.35
2019-05-10T13:52:29.617Z,4.78
2019-05-10T13:54:54.343Z,5.25
2019-05-10T13:57:24.749Z,5.95
2019-05-10T13:59:57.407Z,4.53
2019-05-10T14:02:32.712Z,4.50
2019-05-10T14:04:58.212Z,4.67
2019-05-10T14:07:29.334Z,7.60
2019-05-10T14:09:58.953Z,8.13
2019-05-10T14:12:28.612Z,6.22
2019-05-10T14:15:02.563Z,5.80
2019-05-10T14:17:33.110Z,5.10
2019-05-10T14:20:02.680Z,3.77
2019-05-10T14:22:32.723Z,4.92
2019-05-10T14:25:02.294Z,3.72
2019-05-10T14:27:36.062Z,5.67
2019-05-10T14:30:07.373Z,6.40
2019-05-10T14:32:35.756Z,4.40
2019-05-10T14:35:05.443Z,6.65
2019-05-10T14:37:36.269Z,6.15
2019-05-10T14:40:06.229Z,6.33
2019-05-10T14:42:35.861Z,6.20
2019-05-10T14:45:05.761Z,6.40
2019-05-10T14:47:46.636Z,6.17
2019-05-10T14:50:06.875Z,6.72
2019-05-10T14:52:36.456Z,7.60
2019-05-10T14:55:06.139Z,6.40
2019-05-10T14:57:36.026Z,5.60
2019-05-10T15:00:06.688Z,6.95
2019-05-10T15:02:36.476Z,6.10
2019-05-10T15:05:09.131Z,5.55
2019-05-10T15:07:37.330Z,7.15
2019-05-10T15:10:07.310Z,7.95
2019-05-10T15:12:37.157Z,6.42
2019-05-10T15:15:06.801Z,7.35
2019-05-10T15:17:36.659Z,8.05
2019-05-10T15:20:12.010Z,6.25
2019-05-10T15:22:43.912Z,6.97
2019-05-10T15:25:13.846Z,6.22
2019-05-10T15:27:43.413Z,6.72
2019-05-10T15:30:13.138Z,5.90
2019-05-10T15:32:42.748Z,6.87
2019-05-10T15:35:12.363Z,6.97
2019-05-10T15:37:46.406Z,5.83
2019-05-10T15:40:13.577Z,6.97
2019-05-10T15:42:43.264Z,7.45
2019-05-10T15:45:14.654Z,6.65
2019-05-10T15:47:51.116Z,7.37
2019-05-10T15:50:15.186Z,8.43
2019-05-10T15:52:47.033Z,9.35
2019-05-10T15:55:22.434Z,7.08
2019-05-10T15:57:51.874Z,6.72
2019-05-10T16:00:18.811Z,8.95
2019-05-10T16:02:48.838Z,7.92
2019-05-10T16:05:29.386Z,8.38
2019-05-10T16:07:51.561Z,6.15
2019-05-10T16:10:27.410Z,5.72
2019-05-10T16:12:53.174Z,7.05
2019-05-10T16:15:23.455Z,7.20
2019-05-10T16:17:53.661Z,7.92
2019-05-10T16:20:24.649Z,8.95
2019-05-10T16:22:54.214Z,6.60
2019-05-10T16:25:23.703Z,6.65
2019-05-10T16:27:53.272Z,6.17
2019-05-10T16:30:22.871Z,6.30
2019-05-10T16:32:52.752Z,5.22
2019-05-10T16:35:22.328Z,5.55
2019-05-10T16:37:51.806Z,5.05
2019-05-10T16:40:21.565Z,6.58
2019-05-10T16:42:51.828Z,5.62
2019-05-10T16:45:21.285Z,6.40
2019-05-10T16:47:50.755Z,6.83
2019-05-10T16:50:20.314Z,6.27
2019-05-10T16:52:49.925Z,7.95
2019-05-10T16:55:19.472Z,8.63
2019-05-10T16:57:49.328Z,9.40
2019-05-10T17:00:18.935Z,10.70
2019-05-10T17:02:48.778Z,8.93
2019-05-10T17:05:18.352Z,8.87
2019-05-10T17:07:47.888Z,7.67
2019-05-10T17:10:17.452Z,7.17
2019-05-10T17:12:46.968Z,7.67
2019-05-10T17:15:16.739Z,8.10
2019-05-10T17:17:46.387Z,8.27
2019-05-10T17:20:23.503Z,7.67
2019-05-10T17:22:53.673Z,8.67
2019-05-10T17:25:23.500Z,8.53
2019-05-10T17:27:57.492Z,9.13
2019-05-10T17:30:27.904Z,8.33
2019-05-10T17:32:57.915Z,8.30
2019-05-10T17:35:27.623Z,8.80
2019-05-10T17:37:57.602Z,10.10
2019-05-10T17:40:27.101Z,8.83
2019-05-10T17:42:56.631Z,8.60
2019-05-10T17:45:26.331Z,8.10
2019-05-10T17:47:55.897Z,7.80
2019-05-10T17:50:26.473Z,8.33
2019-05-10T17:52:56.913Z,7.90
2019-05-10T17:55:28.113Z,8.53
2019-05-10T17:57:59.264Z,9.13
2019-05-10T18:00:28.841Z,9.43
2019-05-10T18:02:58.472Z,7.27
2019-05-10T18:05:28.010Z,7.90
2019-05-10T18:07:58.417Z,7.33
2019-05-10T18:10:28.291Z,7.83
2019-05-10T18:13:03.346Z,8.93
2019-05-10T18:15:32.955Z,8.30
2019-05-10T18:18:02.651Z,7.97
2019-05-10T18:20:40.833Z,9.10
2019-05-10T18:23:02.694Z,8.90
2019-05-10T18:25:32.357Z,7.80
2019-05-10T18:28:02.137Z,8.53
2019-05-10T18:30:32.035Z,7.60
2019-05-10T18:33:06.824Z,7.53
2019-05-10T18:35:34.244Z,7.77
2019-05-10T18:38:04.170Z,9.13
2019-05-10T18:40:35.037Z,8.80
2019-05-10T18:43:05.797Z,9.30
2019-05-10T18:45:35.757Z,10.20
2019-05-10T18:48:05.305Z,8.53
2019-05-10T18:50:39.598Z,9.37
2019-05-10T18:53:06.390Z,9.10
2019-05-10T18:55:36.239Z,9.83
2019-05-10T18:58:05.858Z,9.27
2019-05-10T19:00:35.426Z,9.43
2019-05-10T19:03:05.005Z,9.43
2019-05-10T19:05:35.597Z,9.67
2019-05-10T19:08:05.897Z,10.43
2019-05-10T19:10:36.170Z,9.50
2019-05-10T19:13:06.530Z,9.83
2019-05-10T19:15:36.213Z,9.33
2019-05-10T19:18:06.138Z,10.07
2019-05-10T19:20:36.091Z,9.70
2019-05-10T19:23:05.746Z,9.60
2019-05-10T19:25:37.659Z,9.10
2019-05-10T19:28:06.751Z,9.40
2019-05-10T19:30:36.325Z,9.53
2019-05-10T19:33:05.984Z,9.43
2019-05-10T19:35:37.946Z,9.80
2019-05-10T19:38:07.545Z,9.30
2019-05-10T19:40:37.198Z,10.10
2019-05-10T19:43:07.786Z,9.40
2019-05-10T19:45:37.255Z,9.60
2019-05-10T19:48:06.772Z,10.67
2019-05-10T19:50:36.442Z,10.13
2019-05-10T19:53:05.983Z,10.47
2019-05-10T19:55:35.525Z,10.37
2019-05-10T19:58:05.181Z,10.83
2019-05-10T20:00:35.112Z,11.10
2019-05-10T20:03:04.686Z,11.27
2019-05-10T20:05:34.250Z,11.67
2019-05-10T20:08:03.842Z,11.10
2019-05-10T20:10:33.392Z,11.20
2019-05-10T20:13:03.057Z,11.70
2019-05-10T20:15:33.522Z,11.30
2019-05-10T20:18:03.227Z,11.40
2019-05-10T20:20:33.313Z,11.23
2019-05-10T20:23:04.496Z,11.00
2019-05-10T20:25:34.959Z,13.00
2019-05-10T20:28:06.498Z,11.07
2019-05-10T20:30:36.014Z,11.50
2019-05-10T20:33:05.795Z,11.37
2019-05-10T20:35:35.557Z,12.30
2019-05-10T20:38:05.042Z,11.30
2019-05-10T20:40:37.134Z,11.07
2019-05-10T20:43:06.625Z,11.83
2019-05-10T20:45:36.191Z,12.30
2019-05-10T20:48:06.095Z,11.20
2019-05-10T20:50:35.922Z,11.13
2019-05-10T20:53:05.465Z,11.40
2019-05-10T20:55:35.364Z,11.10
2019-05-10T20:58:04.894Z,11.27
2019-05-10T21:00:34.492Z,10.37
2019-05-10T21:03:04.186Z,11.23
2019-05-10T21:05:33.769Z,10.63
2019-05-10T21:08:16.080Z,10.97
2019-05-10T21:10:34.636Z,10.47
2019-05-10T21:13:04.150Z,11.50
2019-05-10T21:15:33.713Z,10.73
2019-05-10T21:18:03.220Z,10.60
2019-05-10T21:20:41.259Z,11.77
2019-05-10T21:23:13.255Z,10.63
2019-05-10T21:25:42.810Z,10.80
2019-05-10T21:28:12.272Z,10.70
2019-05-10T21:30:41.920Z,10.57
2019-05-10T21:33:11.489Z,11.40
2019-05-10T21:35:41.060Z,11.33
2019-05-10T21:38:10.824Z,12.03
2019-05-10T21:40:40.712Z,11.17
2019-05-10T21:43:10.274Z,11.20
2019-05-10T21:45:40.183Z,12.40
2019-05-10T21:48:09.771Z,12.23
2019-05-10T21:50:39.302Z,11.87
2019-05-10T21:53:08.787Z,11.40
2019-05-10T21:55:38.625Z,11.53
2019-05-10T21:58:08.220Z,11.60
2019-05-10T22:00:41.136Z,11.50
2019-05-10T22:03:10.809Z,11.23
2019-05-10T22:05:40.470Z,12.67
2019-05-10T22:08:11.060Z,12.10
2019-05-10T22:10:40.966Z,12.47
2019-05-10T22:13:11.333Z,11.63
2019-05-10T22:15:40.952Z,12.17
2019-05-10T22:18:10.536Z,12.50
2019-05-10T22:20:40.115Z,12.17
2019-05-10T22:23:10.014Z,13.23
2019-05-10T22:25:40.135Z,13.63
2019-05-10T22:28:09.790Z,13.13
2019-05-10T22:30:40.439Z,13.60
2019-05-10T22:33:10.032Z,14.10
2019-05-10T22:35:39.645Z,14.07
2019-05-10T22:38:09.248Z,15.20
2019-05-10T22:40:39.107Z,13.60
2019-05-10T22:43:08.704Z,13.97
2019-05-10T22:45:38.305Z,14.23
2019-05-10T22:48:08.185Z,14.33
2019-05-10T22:50:38.093Z,14.43
2019-05-10T22:53:08.252Z,13.83
2019-05-10T22:55:38.122Z,18.27
2019-05-10T22:58:07.791Z,14.53
2019-05-10T23:00:37.387Z,14.33
2019-05-10T23:03:06.973Z,13.97
2019-05-10T23:05:36.931Z,14.50
2019-05-10T23:08:06.604Z,15.07
2019-05-10T23:10:36.551Z,14.80
2019-05-10T23:13:06.162Z,14.37
2019-05-10T23:15:35.808Z,14.27
2019-05-10T23:18:05.763Z,15.07
2019-05-10T23:20:35.687Z,13.60
2019-05-10T23:23:05.315Z,14.77
2019-05-10T23:25:35.036Z,15.43
2019-05-10T23:28:04.887Z,15.63
2019-05-10T23:30:34.467Z,16.03
2019-05-10T23:33:04.082Z,14.63
2019-05-10T23:35:33.802Z,14.23
2019-05-10T23:38:03.409Z,14.50
2019-05-10T23:40:32.991Z,14.03
2019-05-10T23:43:02.592Z,13.57
2019-05-10T23:45:32.192Z,13.67
2019-05-10T23:48:01.821Z,14.43
2019-05-10T23:50:31.892Z,15.53
2019-05-10T23:53:01.463Z,16.10
2019-05-10T23:55:31.052Z,17.40
2019-05-10T23:58:00.929Z,17.03
